sensor_id;sensor_type;location;lat;lon;timestamp;pressure;altitude;pressure_sealevel;temperature;humidity
75692;BME280;64307;52.508;6.090;2023-01-20T00:01:17;101007.72;;;1.21;93.75
75692;BME280;64307;52.508;6.090;2023-01-20T00:03:42;101021.69;;;1.36;93.64
75692;BME280;64307;52.508;6.090;2023-01-20T00:06:10;101023.31;;;1.37;93.19
75692;BME280;64307;52.508;6.090;2023-01-20T00:08:35;101008.84;;;1.20;93.27
75692;BME280;64307;52.508;6.090;2023-01-20T00:11:05;101026.50;;;1.10;94.28
75692;BME280;64307;52.508;6.090;2023-01-20T00:13:31;101016.59;;;1.18;94.88
75692;BME280;64307;52.508;6.090;2023-01-20T00:15:57;101016.75;;;1.21;94.69
75692;BME280;64307;52.508;6.090;2023-01-20T00:18:22;101029.31;;;1.31;94.13
75692;BME280;64307;52.508;6.090;2023-01-20T00:20:47;101022.88;;;1.27;94.23
75692;BME280;64307;52.508;6.090;2023-01-20T00:23:13;101028.00;;;1.28;94.58
75692;BME280;64307;52.508;6.090;2023-01-20T00:25:38;101021.75;;;1.19;94.45
75692;BME280;64307;52.508;6.090;2023-01-20T00:28:03;101024.97;;;1.21;94.16
75692;BME280;64307;52.508;6.090;2023-01-20T00:30:29;101017.41;;;1.18;94.66
75692;BME280;64307;52.508;6.090;2023-01-20T00:32:55;101024.47;;;1.28;94.01
75692;BME280;64307;52.508;6.090;2023-01-20T00:35:20;101015.59;;;1.31;93.54
75692;BME280;64307;52.508;6.090;2023-01-20T00:37:45;101023.47;;;1.32;93.35
75692;BME280;64307;52.508;6.090;2023-01-20T00:40:11;101040.53;;;1.38;93.97
75692;BME280;64307;52.508;6.090;2023-01-20T00:42:36;101039.59;;;1.34;93.76
75692;BME280;64307;52.508;6.090;2023-01-20T00:45:02;101025.13;;;1.25;92.92
75692;BME280;64307;52.508;6.090;2023-01-20T00:47:27;101037.66;;;1.34;93.98
75692;BME280;64307;52.508;6.090;2023-01-20T00:49:52;101043.28;;;1.38;93.78
75692;BME280;64307;52.508;6.090;2023-01-20T00:52:18;101039.47;;;1.30;93.42
75692;BME280;64307;52.508;6.090;2023-01-20T00:54:44;101059.56;;;1.43;93.87
75692;BME280;64307;52.508;6.090;2023-01-20T00:57:09;101061.16;;;1.44;93.89
75692;BME280;64307;52.508;6.090;2023-01-20T00:59:35;101064.25;;;1.42;94.05
75692;BME280;64307;52.508;6.090;2023-01-20T01:02:02;101068.56;;;1.52;93.60
75692;BME280;64307;52.508;6.090;2023-01-20T01:04:28;101069.03;;;1.54;93.07
75692;BME280;64307;52.508;6.090;2023-01-20T01:06:53;101084.28;;;1.43;93.29
75692;BME280;64307;52.508;6.090;2023-01-20T01:09:18;101079.16;;;1.33;92.75
75692;BME280;64307;52.508;6.090;2023-01-20T01:11:46;101072.25;;;1.27;92.61
75692;BME280;64307;52.508;6.090;2023-01-20T01:14:12;101074.78;;;1.32;92.89
75692;BME280;64307;52.508;6.090;2023-01-20T01:16:38;101070.72;;;1.38;93.35
75692;BME280;64307;52.508;6.090;2023-01-20T01:19:04;101091.56;;;1.39;92.99
75692;BME280;64307;52.508;6.090;2023-01-20T01:21:31;101095.47;;;1.29;93.77
75692;BME280;64307;52.508;6.090;2023-01-20T01:23:56;101098.34;;;1.33;93.63
75692;BME280;64307;52.508;6.090;2023-01-20T01:26:21;101093.38;;;1.26;93.01
75692;BME280;64307;52.508;6.090;2023-01-20T01:28:48;101094.06;;;1.15;92.91
75692;BME280;64307;52.508;6.090;2023-01-20T01:31:13;101103.19;;;1.27;93.68
75692;BME280;64307;52.508;6.090;2023-01-20T01:33:39;101095.63;;;1.24;92.94
75692;BME280;64307;52.508;6.090;2023-01-20T01:36:05;101093.88;;;1.20;92.85
75692;BME280;64307;52.508;6.090;2023-01-20T01:38:33;101120.31;;;1.33;92.58
75692;BME280;64307;52.508;6.090;2023-01-20T01:40:59;101114.38;;;1.22;92.53
75692;BME280;64307;52.508;6.090;2023-01-20T01:43:27;101121.63;;;1.27;92.47
75692;BME280;64307;52.508;6.090;2023-01-20T01:45:53;101123.38;;;1.31;92.68
75692;BME280;64307;52.508;6.090;2023-01-20T01:48:24;101115.69;;;1.16;93.19
75692;BME280;64307;52.508;6.090;2023-01-20T01:50:55;101117.91;;;1.23;92.89
75692;BME280;64307;52.508;6.090;2023-01-20T01:53:22;101116.13;;;1.27;93.37
75692;BME280;64307;52.508;6.090;2023-01-20T01:56:00;101114.69;;;1.29;93.19
75692;BME280;64307;52.508;6.090;2023-01-20T01:58:29;101130.91;;;1.43;92.98
75692;BME280;64307;52.508;6.090;2023-01-20T02:00:56;101128.16;;;1.43;93.09
75692;BME280;64307;52.508;6.090;2023-01-20T02:03:22;101107.19;;;1.38;93.06
75692;BME280;64307;52.508;6.090;2023-01-20T02:05:50;101130.25;;;1.46;93.49
75692;BME280;64307;52.508;6.090;2023-01-20T02:08:17;101122.00;;;1.46;92.94
75692;BME280;64307;52.508;6.090;2023-01-20T02:10:43;101123.19;;;1.36;93.37
75692;BME280;64307;52.508;6.090;2023-01-20T02:13:09;101133.91;;;1.58;93.30
75692;BME280;64307;52.508;6.090;2023-01-20T02:15:42;101134.06;;;1.62;93.17
75692;BME280;64307;52.508;6.090;2023-01-20T02:18:32;101141.38;;;1.49;92.97
75692;BME280;64307;52.508;6.090;2023-01-20T02:24:49;101137.50;;;1.50;93.60
75692;BME280;64307;52.508;6.090;2023-01-20T02:30:38;101136.41;;;1.43;93.18
75692;BME280;64307;52.508;6.090;2023-01-20T02:33:19;101121.91;;;1.34;93.31
75692;BME280;64307;52.508;6.090;2023-01-20T02:35:52;101125.28;;;1.39;93.47
75692;BME280;64307;52.508;6.090;2023-01-20T02:41:19;101137.25;;;1.35;93.51
75692;BME280;64307;52.508;6.090;2023-01-20T02:44:10;101137.72;;;1.37;92.97
75692;BME280;64307;52.508;6.090;2023-01-20T02:54:32;101129.81;;;1.35;93.75
75692;BME280;64307;52.508;6.090;2023-01-20T02:57:01;101138.53;;;1.37;93.21
75692;BME280;64307;52.508;6.090;2023-01-20T02:59:32;101139.97;;;1.35;93.75
75692;BME280;64307;52.508;6.090;2023-01-20T03:02:03;101142.25;;;1.33;93.59
75692;BME280;64307;52.508;6.090;2023-01-20T03:04:52;101158.16;;;1.48;93.42
75692;BME280;64307;52.508;6.090;2023-01-20T03:07:22;101149.94;;;1.48;93.34
75692;BME280;64307;52.508;6.090;2023-01-20T03:09:51;101155.75;;;1.46;93.29
75692;BME280;64307;52.508;6.090;2023-01-20T03:12:29;101138.06;;;1.35;93.44
75692;BME280;64307;52.508;6.090;2023-01-20T03:14:58;101149.28;;;1.51;92.98
75692;BME280;64307;52.508;6.090;2023-01-20T03:17:23;101147.50;;;1.55;92.97
75692;BME280;64307;52.508;6.090;2023-01-20T03:19:49;101142.03;;;1.46;92.21
75692;BME280;64307;52.508;6.090;2023-01-20T03:22:14;101147.81;;;1.53;92.47
75692;BME280;64307;52.508;6.090;2023-01-20T03:24:42;101132.50;;;1.44;92.55
75692;BME280;64307;52.508;6.090;2023-01-20T03:27:10;101143.19;;;1.45;92.34
75692;BME280;64307;52.508;6.090;2023-01-20T03:29:35;101138.00;;;1.44;92.78
75692;BME280;64307;52.508;6.090;2023-01-20T03:32:17;101146.69;;;1.54;92.56
75692;BME280;64307;52.508;6.090;2023-01-20T03:34:43;101143.19;;;1.45;92.81
75692;BME280;64307;52.508;6.090;2023-01-20T03:37:10;101153.81;;;1.47;92.45
75692;BME280;64307;52.508;6.090;2023-01-20T03:39:37;101132.88;;;1.34;92.51
75692;BME280;64307;52.508;6.090;2023-01-20T03:42:30;101151.72;;;1.44;92.34
75692;BME280;64307;52.508;6.090;2023-01-20T03:45:05;101149.16;;;1.47;92.47
75692;BME280;64307;52.508;6.090;2023-01-20T03:52:40;101148.69;;;1.37;93.28
75692;BME280;64307;52.508;6.090;2023-01-20T03:55:13;101160.91;;;1.48;92.22
75692;BME280;64307;52.508;6.090;2023-01-20T03:57:52;101160.00;;;1.35;92.65
75692;BME280;64307;52.508;6.090;2023-01-20T04:00:19;101160.31;;;1.34;93.15
75692;BME280;64307;52.508;6.090;2023-01-20T04:02:46;101159.34;;;1.38;93.40
75692;BME280;64307;52.508;6.090;2023-01-20T04:05:12;101148.56;;;1.25;93.22
75692;BME280;64307;52.508;6.090;2023-01-20T04:07:39;101162.88;;;1.39;93.28
75692;BME280;64307;52.508;6.090;2023-01-20T04:10:09;101167.88;;;1.45;93.09
75692;BME280;64307;52.508;6.090;2023-01-20T04:12:35;101155.47;;;1.39;92.93
75692;BME280;64307;52.508;6.090;2023-01-20T04:15:00;101174.16;;;1.46;92.41
75692;BME280;64307;52.508;6.090;2023-01-20T04:17:27;101165.63;;;1.39;93.19
75692;BME280;64307;52.508;6.090;2023-01-20T04:19:53;101151.78;;;1.35;92.98
75692;BME280;64307;52.508;6.090;2023-01-20T04:22:24;101171.09;;;1.47;92.67
75692;BME280;64307;52.508;6.090;2023-01-20T04:27:32;101173.66;;;1.44;92.95
75692;BME280;64307;52.508;6.090;2023-01-20T04:29:57;101162.06;;;1.38;92.97
75692;BME280;64307;52.508;6.090;2023-01-20T04:32:23;101180.63;;;1.41;92.22
75692;BME280;64307;52.508;6.090;2023-01-20T04:34:51;101190.00;;;1.40;92.63
75692;BME280;64307;52.508;6.090;2023-01-20T04:37:17;101168.06;;;1.32;92.87
75692;BME280;64307;52.508;6.090;2023-01-20T04:39:43;101188.66;;;1.55;93.14
75692;BME280;64307;52.508;6.090;2023-01-20T04:42:09;101175.16;;;1.41;92.48
75692;BME280;64307;52.508;6.090;2023-01-20T04:44:34;101199.94;;;1.62;91.85
75692;BME280;64307;52.508;6.090;2023-01-20T04:47:00;101184.47;;;1.49;92.42
75692;BME280;64307;52.508;6.090;2023-01-20T04:49:25;101199.16;;;1.53;91.58
75692;BME280;64307;52.508;6.090;2023-01-20T04:51:50;101178.88;;;1.37;92.11
75692;BME280;64307;52.508;6.090;2023-01-20T04:54:16;101193.53;;;1.41;92.75
75692;BME280;64307;52.508;6.090;2023-01-20T04:56:41;101183.22;;;1.38;91.70
75692;BME280;64307;52.508;6.090;2023-01-20T04:59:07;101197.75;;;1.38;92.86
75692;BME280;64307;52.508;6.090;2023-01-20T05:01:32;101190.47;;;1.42;92.84
75692;BME280;64307;52.508;6.090;2023-01-20T05:03:58;101191.28;;;1.34;93.11
75692;BME280;64307;52.508;6.090;2023-01-20T05:06:23;101170.03;;;1.23;92.90
75692;BME280;64307;52.508;6.090;2023-01-20T05:08:48;101182.22;;;1.42;92.92
75692;BME280;64307;52.508;6.090;2023-01-20T05:11:13;101187.25;;;1.40;92.71
75692;BME280;64307;52.508;6.090;2023-01-20T05:13:39;101178.06;;;1.36;92.63
75692;BME280;64307;52.508;6.090;2023-01-20T05:16:05;101195.50;;;1.32;92.97
75692;BME280;64307;52.508;6.090;2023-01-20T05:18:32;101190.34;;;1.30;92.97
75692;BME280;64307;52.508;6.090;2023-01-20T05:20:58;101196.28;;;1.41;92.61
75692;BME280;64307;52.508;6.090;2023-01-20T05:23:24;101194.19;;;1.38;92.94
75692;BME280;64307;52.508;6.090;2023-01-20T05:25:50;101202.09;;;1.39;92.39
75692;BME280;64307;52.508;6.090;2023-01-20T05:28:16;101189.22;;;1.31;92.84
75692;BME280;64307;52.508;6.090;2023-01-20T05:30:41;101190.19;;;1.35;93.20
75692;BME280;64307;52.508;6.090;2023-01-20T05:33:06;101202.25;;;1.43;93.06
75692;BME280;64307;52.508;6.090;2023-01-20T05:35:32;101208.44;;;1.23;92.79
75692;BME280;64307;52.508;6.090;2023-01-20T05:37:57;101206.19;;;1.08;93.20
75692;BME280;64307;52.508;6.090;2023-01-20T05:40:24;101210.22;;;1.19;92.87
75692;BME280;64307;52.508;6.090;2023-01-20T05:42:49;101214.06;;;1.35;92.31
75692;BME280;64307;52.508;6.090;2023-01-20T05:45:14;101197.94;;;1.25;92.58
75692;BME280;64307;52.508;6.090;2023-01-20T05:47:39;101207.47;;;1.10;92.44
75692;BME280;64307;52.508;6.090;2023-01-20T05:50:05;101214.69;;;1.23;92.67
75692;BME280;64307;52.508;6.090;2023-01-20T05:52:31;101211.53;;;1.13;93.05
75692;BME280;64307;52.508;6.090;2023-01-20T05:54:56;101205.38;;;0.99;92.90
75692;BME280;64307;52.508;6.090;2023-01-20T05:57:24;101206.66;;;1.10;93.00
75692;BME280;64307;52.508;6.090;2023-01-20T05:59:50;101210.38;;;1.14;92.90
75692;BME280;64307;52.508;6.090;2023-01-20T06:02:16;101212.50;;;1.08;93.48
75692;BME280;64307;52.508;6.090;2023-01-20T06:04:44;101196.66;;;1.14;92.97
75692;BME280;64307;52.508;6.090;2023-01-20T06:07:10;101209.91;;;1.12;93.04
75692;BME280;64307;52.508;6.090;2023-01-20T06:09:36;101218.13;;;1.12;93.60
75692;BME280;64307;52.508;6.090;2023-01-20T06:12:02;101205.56;;;1.02;93.66
75692;BME280;64307;52.508;6.090;2023-01-20T06:14:27;101227.16;;;1.04;93.37
75692;BME280;64307;52.508;6.090;2023-01-20T06:16:52;101232.50;;;1.00;93.37
75692;BME280;64307;52.508;6.090;2023-01-20T06:19:18;101215.06;;;0.79;93.96
75692;BME280;64307;52.508;6.090;2023-01-20T06:21:43;101236.69;;;0.98;93.18
75692;BME280;64307;52.508;6.090;2023-01-20T06:24:08;101239.75;;;1.05;93.82
75692;BME280;64307;52.508;6.090;2023-01-20T06:26:33;101248.63;;;1.02;93.34
75692;BME280;64307;52.508;6.090;2023-01-20T06:28:59;101244.44;;;1.04;93.67
75692;BME280;64307;52.508;6.090;2023-01-20T06:31:27;101246.50;;;0.99;92.47
75692;BME280;64307;52.508;6.090;2023-01-20T06:33:53;101228.78;;;1.05;93.11
75692;BME280;64307;52.508;6.090;2023-01-20T06:36:19;101240.06;;;1.12;92.90
75692;BME280;64307;52.508;6.090;2023-01-20T06:38:46;101228.28;;;1.11;92.51
75692;BME280;64307;52.508;6.090;2023-01-20T06:41:15;101234.44;;;1.08;93.44
75692;BME280;64307;52.508;6.090;2023-01-20T06:43:41;101239.09;;;1.08;93.43
75692;BME280;64307;52.508;6.090;2023-01-20T06:46:10;101241.69;;;1.13;93.04
75692;BME280;64307;52.508;6.090;2023-01-20T06:48:36;101241.69;;;1.13;92.81
75692;BME280;64307;52.508;6.090;2023-01-20T06:51:16;101242.81;;;1.12;92.96
75692;BME280;64307;52.508;6.090;2023-01-20T06:53:42;101251.50;;;0.97;92.99
75692;BME280;64307;52.508;6.090;2023-01-20T06:56:10;101241.22;;;1.02;92.87
75692;BME280;64307;52.508;6.090;2023-01-20T06:58:35;101244.44;;;1.04;92.79
75692;BME280;64307;52.508;6.090;2023-01-20T07:01:12;101243.28;;;0.97;93.54
75692;BME280;64307;52.508;6.090;2023-01-20T07:03:38;101233.94;;;0.89;92.92
75692;BME280;64307;52.508;6.090;2023-01-20T07:06:35;101262.19;;;1.07;92.88
75692;BME280;64307;52.508;6.090;2023-01-20T07:09:04;101263.63;;;1.04;93.25
75692;BME280;64307;52.508;6.090;2023-01-20T07:11:30;101271.19;;;1.07;93.69
75692;BME280;64307;52.508;6.090;2023-01-20T07:13:56;101288.28;;;1.21;93.02
75692;BME280;64307;52.508;6.090;2023-01-20T07:16:21;101280.25;;;1.16;91.89
75692;BME280;64307;52.508;6.090;2023-01-20T07:18:48;101297.81;;;1.24;92.53
75692;BME280;64307;52.508;6.090;2023-01-20T07:21:13;101288.13;;;1.18;92.93
75692;BME280;64307;52.508;6.090;2023-01-20T07:23:39;101295.53;;;1.17;92.74
75692;BME280;64307;52.508;6.090;2023-01-20T07:26:06;101308.78;;;1.24;92.70
75692;BME280;64307;52.508;6.090;2023-01-20T07:28:33;101315.22;;;1.19;92.65
75692;BME280;64307;52.508;6.090;2023-01-20T07:31:10;101322.16;;;1.25;91.88
75692;BME280;64307;52.508;6.090;2023-01-20T07:33:36;101318.94;;;1.32;92.17
75692;BME280;64307;52.508;6.090;2023-01-20T07:36:02;101313.94;;;1.34;91.92
75692;BME280;64307;52.508;6.090;2023-01-20T07:38:28;101316.19;;;1.32;91.25
75692;BME280;64307;52.508;6.090;2023-01-20T07:40:57;101320.25;;;1.34;91.33
75692;BME280;64307;52.508;6.090;2023-01-20T07:43:23;101313.31;;;1.28;92.15
75692;BME280;64307;52.508;6.090;2023-01-20T07:45:48;101306.19;;;1.36;91.14
75692;BME280;64307;52.508;6.090;2023-01-20T07:48:13;101321.38;;;1.33;91.24
75692;BME280;64307;52.508;6.090;2023-01-20T07:50:39;101321.34;;;1.42;90.94
75692;BME280;64307;52.508;6.090;2023-01-20T07:53:04;101325.88;;;1.38;91.91
75692;BME280;64307;52.508;6.090;2023-01-20T07:55:29;101328.81;;;1.33;91.88
75692;BME280;64307;52.508;6.090;2023-01-20T07:57:54;101326.22;;;1.28;92.57
75692;BME280;64307;52.508;6.090;2023-01-20T08:00:21;101336.69;;;1.43;91.01
75692;BME280;64307;52.508;6.090;2023-01-20T08:02:46;101335.88;;;1.51;91.54
75692;BME280;64307;52.508;6.090;2023-01-20T08:05:11;101326.22;;;1.45;91.19
75692;BME280;64307;52.508;6.090;2023-01-20T08:07:38;101345.09;;;1.55;91.73
75692;BME280;64307;52.508;6.090;2023-01-20T08:10:04;101330.06;;;1.44;90.98
75692;BME280;64307;52.508;6.090;2023-01-20T08:12:30;101352.34;;;1.51;91.27
75692;BME280;64307;52.508;6.090;2023-01-20T08:14:56;101344.59;;;1.53;91.71
75692;BME280;64307;52.508;6.090;2023-01-20T08:17:21;101359.78;;;1.59;91.15
75692;BME280;64307;52.508;6.090;2023-01-20T08:19:47;101356.69;;;1.60;91.08
75692;BME280;64307;52.508;6.090;2023-01-20T08:22:12;101357.19;;;1.54;90.64
75692;BME280;64307;52.508;6.090;2023-01-20T08:24:37;101361.06;;;1.70;90.91
75692;BME280;64307;52.508;6.090;2023-01-20T08:27:03;101357.66;;;1.73;89.57
75692;BME280;64307;52.508;6.090;2023-01-20T08:29:28;101369.78;;;1.81;90.36
75692;BME280;64307;52.508;6.090;2023-01-20T08:31:58;101360.72;;;1.80;89.78
75692;BME280;64307;52.508;6.090;2023-01-20T08:34:24;101361.84;;;1.88;89.33
75692;BME280;64307;52.508;6.090;2023-01-20T08:36:50;101368.47;;;1.78;90.43
75692;BME280;64307;52.508;6.090;2023-01-20T08:39:18;101380.44;;;1.82;89.92
75692;BME280;64307;52.508;6.090;2023-01-20T08:41:45;101369.31;;;1.61;91.19
75692;BME280;64307;52.508;6.090;2023-01-20T08:44:10;101374.13;;;1.73;89.89
75692;BME280;64307;52.508;6.090;2023-01-20T08:46:37;101374.28;;;1.77;90.46
75692;BME280;64307;52.508;6.090;2023-01-20T08:49:06;101370.56;;;1.73;90.26
75692;BME280;64307;52.508;6.090;2023-01-20T08:51:32;101378.66;;;1.60;90.71
75692;BME280;64307;52.508;6.090;2023-01-20T08:53:58;101382.84;;;1.75;89.93
75692;BME280;64307;52.508;6.090;2023-01-20T08:56:24;101386.75;;;1.74;90.19
75692;BME280;64307;52.508;6.090;2023-01-20T08:58:49;101385.28;;;1.68;90.00
75692;BME280;64307;52.508;6.090;2023-01-20T09:01:19;101389.47;;;1.74;89.82
75692;BME280;64307;52.508;6.090;2023-01-20T09:03:46;101390.28;;;1.66;90.03
75692;BME280;64307;52.508;6.090;2023-01-20T09:06:12;101398.84;;;1.73;90.22
75692;BME280;64307;52.508;6.090;2023-01-20T09:08:39;101396.41;;;1.72;90.99
75692;BME280;64307;52.508;6.090;2023-01-20T09:11:10;101401.09;;;1.71;90.74
75692;BME280;64307;52.508;6.090;2023-01-20T09:13:36;101404.50;;;1.59;90.84
75692;BME280;64307;52.508;6.090;2023-01-20T09:16:02;101406.09;;;1.69;91.25
75692;BME280;64307;52.508;6.090;2023-01-20T09:18:30;101407.56;;;1.75;90.52
75692;BME280;64307;52.508;6.090;2023-01-20T09:20:57;101398.06;;;1.64;91.32
75692;BME280;64307;52.508;6.090;2023-01-20T09:23:23;101403.84;;;1.71;91.30
75692;BME280;64307;52.508;6.090;2023-01-20T09:25:48;101417.56;;;1.71;91.46
75692;BME280;64307;52.508;6.090;2023-01-20T09:28:14;101420.47;;;1.83;91.20
75692;BME280;64307;52.508;6.090;2023-01-20T09:30:39;101410.16;;;1.63;91.03
75692;BME280;64307;52.508;6.090;2023-01-20T09:33:06;101405.31;;;1.60;91.43
75692;BME280;64307;52.508;6.090;2023-01-20T09:35:31;101425.16;;;1.57;91.28
75692;BME280;64307;52.508;6.090;2023-01-20T09:37:57;101432.09;;;1.63;91.95
75692;BME280;64307;52.508;6.090;2023-01-20T09:40:59;101430.66;;;1.74;92.21
75692;BME280;64307;52.508;6.090;2023-01-20T09:44:02;101427.09;;;1.74;91.79
75692;BME280;64307;52.508;6.090;2023-01-20T09:49:31;101445.34;;;1.78;91.87
75692;BME280;64307;52.508;6.090;2023-01-20T09:52:28;101438.72;;;1.88;91.21
75692;BME280;64307;52.508;6.090;2023-01-20T10:00:46;101447.13;;;1.83;91.18
75692;BME280;64307;52.508;6.090;2023-01-20T10:03:18;101458.59;;;1.85;91.61
75692;BME280;64307;52.508;6.090;2023-01-20T10:05:48;101439.84;;;1.95;91.15
75692;BME280;64307;52.508;6.090;2023-01-20T10:08:21;101447.09;;;2.00;90.60
75692;BME280;64307;52.508;6.090;2023-01-20T10:10:52;101455.19;;;2.05;91.01
75692;BME280;64307;52.508;6.090;2023-01-20T10:13:36;101455.50;;;2.12;90.64
75692;BME280;64307;52.508;6.090;2023-01-20T10:16:08;101448.75;;;2.01;91.07
75692;BME280;64307;52.508;6.090;2023-01-20T10:19:13;101461.94;;;2.16;90.45
75692;BME280;64307;52.508;6.090;2023-01-20T10:21:43;101459.69;;;2.18;91.62
75692;BME280;64307;52.508;6.090;2023-01-20T10:24:14;101455.00;;;2.18;90.60
75692;BME280;64307;52.508;6.090;2023-01-20T10:26:48;101461.47;;;2.22;90.64
75692;BME280;64307;52.508;6.090;2023-01-20T10:29:42;101458.06;;;2.25;90.11
75692;BME280;64307;52.508;6.090;2023-01-20T10:32:31;101468.44;;;2.11;91.58
75692;BME280;64307;52.508;6.090;2023-01-20T10:35:00;101460.16;;;2.28;90.58
75692;BME280;64307;52.508;6.090;2023-01-20T10:37:28;101469.72;;;2.14;91.34
75692;BME280;64307;52.508;6.090;2023-01-20T10:39:59;101468.44;;;2.11;90.98
75692;BME280;64307;52.508;6.090;2023-01-20T10:42:27;101463.91;;;2.15;90.47
75692;BME280;64307;52.508;6.090;2023-01-20T10:44:54;101469.88;;;2.17;90.85
75692;BME280;64307;52.508;6.090;2023-01-20T10:50:14;101480.88;;;2.17;90.37
75692;BME280;64307;52.508;6.090;2023-01-20T10:55:35;101493.13;;;2.28;90.20
75692;BME280;64307;52.508;6.090;2023-01-20T10:58:24;101485.84;;;2.24;89.89
75692;BME280;64307;52.508;6.090;2023-01-20T11:00:50;101485.72;;;2.20;90.49
75692;BME280;64307;52.508;6.090;2023-01-20T11:03:19;101485.06;;;2.15;91.16
75692;BME280;64307;52.508;6.090;2023-01-20T11:05:48;101493.81;;;2.17;90.28
75692;BME280;64307;52.508;6.090;2023-01-20T11:08:20;101475.69;;;2.24;90.37
75692;BME280;64307;52.508;6.090;2023-01-20T11:10:49;101482.81;;;2.17;90.29
75692;BME280;64307;52.508;6.090;2023-01-20T11:13:17;101486.50;;;2.29;90.40
75692;BME280;64307;52.508;6.090;2023-01-20T11:15:47;101473.91;;;2.28;90.47
75692;BME280;64307;52.508;6.090;2023-01-20T11:20:41;101488.47;;;2.20;90.16
75692;BME280;64307;52.508;6.090;2023-01-20T11:23:32;101486.66;;;2.33;90.25
75692;BME280;64307;52.508;6.090;2023-01-20T11:26:00;101484.72;;;2.33;89.85
75692;BME280;64307;52.508;6.090;2023-01-20T11:28:31;101486.66;;;2.41;89.25
75692;BME280;64307;52.508;6.090;2023-01-20T11:31:01;101495.06;;;2.36;90.07
75692;BME280;64307;52.508;6.090;2023-01-20T11:33:27;101481.78;;;2.38;90.35
75692;BME280;64307;52.508;6.090;2023-01-20T11:36:09;101490.03;;;2.47;90.14
75692;BME280;64307;52.508;6.090;2023-01-20T11:38:42;101488.72;;;2.53;89.92
75692;BME280;64307;52.508;6.090;2023-01-20T11:41:18;101495.53;;;2.47;88.97
75692;BME280;64307;52.508;6.090;2023-01-20T11:43:45;101493.41;;;2.53;89.50
75692;BME280;64307;52.508;6.090;2023-01-20T11:46:31;101494.34;;;2.57;90.03
75692;BME280;64307;52.508;6.090;2023-01-20T11:49:17;101504.72;;;2.51;89.40
75692;BME280;64307;52.508;6.090;2023-01-20T11:51:52;101512.50;;;2.40;90.15
75692;BME280;64307;52.508;6.090;2023-01-20T11:54:23;101499.09;;;2.47;89.70
75692;BME280;64307;52.508;6.090;2023-01-20T11:56:56;101501.34;;;2.54;89.06
75692;BME280;64307;52.508;6.090;2023-01-20T11:59:28;101513.78;;;2.52;89.90
75692;BME280;64307;52.508;6.090;2023-01-20T12:07:13;101515.72;;;2.60;88.62
75692;BME280;64307;52.508;6.090;2023-01-20T12:09:42;101512.75;;;2.73;88.68
75692;BME280;64307;52.508;6.090;2023-01-20T12:12:22;101519.94;;;2.48;88.70
75692;BME280;64307;52.508;6.090;2023-01-20T12:25:15;101517.88;;;2.92;87.39
75692;BME280;64307;52.508;6.090;2023-01-20T12:27:47;101519.38;;;2.81;89.35
75692;BME280;64307;52.508;6.090;2023-01-20T12:32:57;101529.09;;;2.70;88.92
75692;BME280;64307;52.508;6.090;2023-01-20T12:35:26;101525.88;;;2.76;87.64
75692;BME280;64307;52.508;6.090;2023-01-20T12:38:01;101530.53;;;2.84;89.17
75692;BME280;64307;52.508;6.090;2023-01-20T12:40:37;101543.31;;;2.89;89.04
75692;BME280;64307;52.508;6.090;2023-01-20T12:51:58;101556.94;;;2.60;89.09
75692;BME280;64307;52.508;6.090;2023-01-20T12:54:48;101551.72;;;2.75;88.15
75692;BME280;64307;52.508;6.090;2023-01-20T13:06:16;101562.41;;;2.85;89.35
75692;BME280;64307;52.508;6.090;2023-01-20T13:09:29;101567.03;;;3.02;87.56
75692;BME280;64307;52.508;6.090;2023-01-20T13:17:34;101581.41;;;3.16;87.92
75692;BME280;64307;52.508;6.090;2023-01-20T13:20:03;101589.19;;;3.14;87.34
75692;BME280;64307;52.508;6.090;2023-01-20T13:22:29;101592.09;;;3.17;87.36
75692;BME280;64307;52.508;6.090;2023-01-20T13:24:56;101588.84;;;3.15;87.54
75692;BME280;64307;52.508;6.090;2023-01-20T13:27:35;101595.31;;;3.19;87.02
75692;BME280;64307;52.508;6.090;2023-01-20T13:30:03;101581.78;;;2.97;86.99
75692;BME280;64307;52.508;6.090;2023-01-20T13:32:32;101596.41;;;3.27;86.57
75692;BME280;64307;52.508;6.090;2023-01-20T13:34:59;101589.41;;;2.92;87.60
75692;BME280;64307;52.508;6.090;2023-01-20T13:37:33;101607.03;;;2.99;87.13
75692;BME280;64307;52.508;6.090;2023-01-20T13:40:00;101599.41;;;2.96;87.78
75692;BME280;64307;52.508;6.090;2023-01-20T13:42:30;101607.69;;;2.96;87.64
75692;BME280;64307;52.508;6.090;2023-01-20T13:47:55;101614.59;;;3.11;87.55
75692;BME280;64307;52.508;6.090;2023-01-20T13:50:34;101627.75;;;3.05;87.25
75692;BME280;64307;52.508;6.090;2023-01-20T13:53:03;101624.03;;;3.01;87.34
75692;BME280;64307;52.508;6.090;2023-01-20T13:55:52;101628.84;;;3.13;86.48
75692;BME280;64307;52.508;6.090;2023-01-20T13:58:33;101637.75;;;3.10;87.10
75692;BME280;64307;52.508;6.090;2023-01-20T14:01:04;101633.09;;;2.93;87.50
75692;BME280;64307;52.508;6.090;2023-01-20T14:03:32;101648.31;;;2.91;87.20
75692;BME280;64307;52.508;6.090;2023-01-20T14:06:05;101649.13;;;2.83;87.49
75692;BME280;64307;52.508;6.090;2023-01-20T14:08:40;101655.41;;;2.92;86.87
75692;BME280;64307;52.508;6.090;2023-01-20T14:11:13;101653.47;;;2.84;87.09
75692;BME280;64307;52.508;6.090;2023-01-20T14:13:40;101665.94;;;2.90;87.18
75692;BME280;64307;52.508;6.090;2023-01-20T14:16:18;101661.72;;;2.92;86.17
75692;BME280;64307;52.508;6.090;2023-01-20T14:18:44;101682.44;;;2.98;85.62
75692;BME280;64307;52.508;6.090;2023-01-20T14:21:22;101676.59;;;3.08;85.38
75692;BME280;64307;52.508;6.090;2023-01-20T14:23:48;101696.19;;;2.98;84.28
75692;BME280;64307;52.508;6.090;2023-01-20T14:26:33;101687.63;;;2.83;84.81
75692;BME280;64307;52.508;6.090;2023-01-20T14:29:01;101686.66;;;2.70;84.48
75692;BME280;64307;52.508;6.090;2023-01-20T14:34:26;101706.88;;;2.83;84.37
75692;BME280;64307;52.508;6.090;2023-01-20T14:36:54;101715.94;;;2.75;84.65
75692;BME280;64307;52.508;6.090;2023-01-20T14:39:22;101711.41;;;2.70;84.35
75692;BME280;64307;52.508;6.090;2023-01-20T14:41:59;101721.75;;;2.82;84.49